createdAt,value
2023-05-11T08:48:34.792Z,16.10
2023-05-11T08:51:31.907Z,16.25
2023-05-11T08:54:10.742Z,16.30
2023-05-11T09:00:33.118Z,16.28
2023-05-11T09:06:38.773Z,16.23
2023-05-11T09:09:22.989Z,16.24
2023-05-11T09:12:00.109Z,16.33
2023-05-11T09:14:27.626Z,16.49
2023-05-11T09:16:59.189Z,16.79
2023-05-11T09:19:26.183Z,17.15
2023-05-11T09:21:53.318Z,17.43
2023-05-11T09:24:21.586Z,17.71
2023-05-11T09:26:48.983Z,18.01
2023-05-11T09:29:20.550Z,18.26
2023-05-11T09:31:47.676Z,18.49
2023-05-11T09:34:18.660Z,18.67
2023-05-11T09:36:48.605Z,18.88
2023-05-11T09:41:49.971Z,19.34
2023-05-11T09:44:18.963Z,19.24
2023-05-11T09:46:46.218Z,19.11
2023-05-11T09:49:13.304Z,19.19
2023-05-11T09:51:41.067Z,19.34
2023-05-11T09:54:24.789Z,19.50
2023-05-11T09:56:58.481Z,19.43
2023-05-11T09:59:40.270Z,19.35
2023-05-11T10:02:27.480Z,19.24
2023-05-11T10:04:57.746Z,19.23
2023-05-11T10:07:35.542Z,19.43
2023-05-11T10:10:07.237Z,19.46
2023-05-11T10:12:37.893Z,19.29
2023-05-11T10:15:10.135Z,19.24
2023-05-11T10:17:38.023Z,19.00
2023-05-11T10:20:06.251Z,18.97
2023-05-11T10:22:33.504Z,19.13
2023-05-11T10:25:01.138Z,19.28
2023-05-11T10:27:28.795Z,19.53
2023-05-11T10:29:58.481Z,19.54
2023-05-11T10:32:25.842Z,19.68
2023-05-11T10:34:53.248Z,19.91
2023-05-11T10:37:24.144Z,19.71
2023-05-11T10:39:53.002Z,19.61
2023-05-11T10:42:43.314Z,19.58
2023-05-11T10:45:21.185Z,19.50
2023-05-11T10:48:00.716Z,19.65
2023-05-11T10:50:49.528Z,19.77
2023-05-11T10:53:53.107Z,19.74
2023-05-11T10:56:36.725Z,19.84
2023-05-11T10:59:28.625Z,19.91
2023-05-11T11:01:58.943Z,20.00
2023-05-11T11:04:45.636Z,20.26
2023-05-11T11:07:18.170Z,20.59
2023-05-11T11:10:00.186Z,20.84
2023-05-11T11:12:29.344Z,20.86
2023-05-11T11:14:59.370Z,20.88
2023-05-11T11:17:32.611Z,20.87
2023-05-11T11:20:07.392Z,20.81
2023-05-11T11:22:35.037Z,21.02
2023-05-11T11:25:06.391Z,21.22
2023-05-11T11:27:39.681Z,21.10
2023-05-11T11:30:18.909Z,20.79
2023-05-11T11:33:10.368Z,20.76
2023-05-11T11:35:48.198Z,21.07
2023-05-11T11:38:18.764Z,21.12
2023-05-11T11:40:54.655Z,20.61
2023-05-11T11:43:25.909Z,20.32
2023-05-11T11:45:57.461Z,20.43
2023-05-11T11:48:33.185Z,20.71
2023-05-11T11:51:06.110Z,20.88
2023-05-11T11:53:36.055Z,21.22
2023-05-11T11:56:23.801Z,21.38
2023-05-11T11:58:54.633Z,21.48
2023-05-11T12:01:29.776Z,21.61
2023-05-11T12:04:20.704Z,21.72
2023-05-11T12:06:57.478Z,21.65
2023-05-11T12:09:25.972Z,21.64
2023-05-11T12:11:56.196Z,21.86
2023-05-11T12:14:23.808Z,21.94
2023-05-11T12:17:15.966Z,22.07
2023-05-11T12:19:45.129Z,22.18
2023-05-11T12:22:14.479Z,22.11
2023-05-11T12:24:44.771Z,22.00
2023-05-11T12:27:12.029Z,22.04
2023-05-11T12:29:41.043Z,22.35
2023-05-11T12:32:12.826Z,22.55
2023-05-11T12:34:40.766Z,22.39
2023-05-11T12:37:12.745Z,22.32
2023-05-11T12:39:41.317Z,22.30
2023-05-11T12:42:08.928Z,22.33
2023-05-11T12:44:36.619Z,22.58
2023-05-11T12:47:08.102Z,22.22
2023-05-11T12:49:36.825Z,21.70
2023-05-11T12:52:09.974Z,21.71
2023-05-11T12:54:52.642Z,21.96
2023-05-11T12:57:26.545Z,22.22
2023-05-11T13:00:12.452Z,22.34
2023-05-11T13:02:48.016Z,22.35
2023-05-11T13:05:16.278Z,22.16
2023-05-11T13:07:48.550Z,21.90
2023-05-11T13:10:18.761Z,21.91
2023-05-11T13:12:51.297Z,21.93
2023-05-11T13:15:21.451Z,22.04
2023-05-11T13:17:55.923Z,22.03
2023-05-11T13:20:26.085Z,22.05
2023-05-11T13:23:07.817Z,21.91
2023-05-11T13:25:55.852Z,21.69
2023-05-11T13:28:24.684Z,21.83
2023-05-11T13:31:00.670Z,21.90
2023-05-11T13:33:29.737Z,21.84
2023-05-11T13:36:00.872Z,21.71
2023-05-11T13:38:29.237Z,21.76
2023-05-11T13:41:04.802Z,21.88
2023-05-11T13:43:34.974Z,21.88
2023-05-11T13:46:06.019Z,22.05
2023-05-11T13:48:33.597Z,22.15
2023-05-11T13:51:01.782Z,22.36
2023-05-11T13:53:30.907Z,22.28
2023-05-11T13:55:58.934Z,21.93
2023-05-11T13:58:26.374Z,21.70
2023-05-11T14:01:07.302Z,21.68
2023-05-11T14:03:39.465Z,21.36
2023-05-11T14:06:09.074Z,21.46
2023-05-11T14:08:37.028Z,21.65
2023-05-11T14:11:09.666Z,21.51
2023-05-11T14:13:37.683Z,21.53
2023-05-11T14:16:07.758Z,21.50
2023-05-11T14:18:36.270Z,21.33
2023-05-11T14:21:03.484Z,21.03
2023-05-11T14:23:31.499Z,20.85
2023-05-11T14:25:59.308Z,20.83
2023-05-11T14:28:26.856Z,21.06
2023-05-11T14:30:54.632Z,21.16
2023-05-11T14:33:22.345Z,21.10
2023-05-11T14:35:49.672Z,20.88
2023-05-11T14:38:17.545Z,20.71
2023-05-11T14:40:44.849Z,20.68
2023-05-11T14:43:12.488Z,20.65
2023-05-11T14:45:40.326Z,20.59
2023-05-11T14:48:07.517Z,20.56
2023-05-11T14:50:35.066Z,20.54
2023-05-11T14:53:02.130Z,20.36
2023-05-11T14:55:29.130Z,20.24
2023-05-11T14:57:56.108Z,20.11
2023-05-11T15:00:23.251Z,20.08
2023-05-11T15:02:51.458Z,20.06
2023-05-11T15:05:18.746Z,19.96
2023-05-11T15:07:45.992Z,19.84
2023-05-11T15:10:14.561Z,19.69
2023-05-11T15:12:46.726Z,19.61
2023-05-11T15:15:13.946Z,19.55
2023-05-11T15:17:41.090Z,19.45
2023-05-11T15:20:08.453Z,19.42
2023-05-11T15:22:35.773Z,19.41
2023-05-11T15:25:02.768Z,19.43
2023-05-11T15:27:31.988Z,19.49
2023-05-11T15:30:01.346Z,19.49
2023-05-11T15:32:28.446Z,19.38
2023-05-11T15:34:59.632Z,19.33
2023-05-11T15:37:27.974Z,19.34
2023-05-11T15:39:55.040Z,19.29
2023-05-11T15:42:22.071Z,19.27
2023-05-11T15:44:49.030Z,19.21
2023-05-11T15:47:16.423Z,19.13
2023-05-11T15:49:44.205Z,19.00
2023-05-11T15:52:11.588Z,18.94
2023-05-11T15:54:38.674Z,18.88
2023-05-11T15:57:06.122Z,18.82
2023-05-11T15:59:33.110Z,18.81
2023-05-11T16:02:00.337Z,18.79
2023-05-11T16:04:27.310Z,18.68
2023-05-11T16:06:58.684Z,18.57
2023-05-11T16:09:25.889Z,18.52
2023-05-11T16:11:52.909Z,18.50
2023-05-11T16:14:20.096Z,18.51
2023-05-11T16:16:47.110Z,18.43
2023-05-11T16:19:14.075Z,18.38
2023-05-11T16:21:41.121Z,18.35
2023-05-11T16:24:08.275Z,18.34
2023-05-11T16:26:35.548Z,18.27
2023-05-11T16:29:02.652Z,18.25
2023-05-11T16:31:29.552Z,18.24
2023-05-11T16:33:56.576Z,18.20
2023-05-11T16:36:23.535Z,18.19
2023-05-11T16:38:50.601Z,18.18
2023-05-11T16:41:17.834Z,18.16
2023-05-11T16:43:45.798Z,18.06
2023-05-11T16:46:13.240Z,17.94
2023-05-11T16:48:41.246Z,17.89
2023-05-11T16:51:08.152Z,17.85
2023-05-11T16:53:35.154Z,17.83
2023-05-11T16:56:02.381Z,17.76
2023-05-11T16:58:31.489Z,17.68
2023-05-11T17:00:59.042Z,17.63
2023-05-11T17:03:26.728Z,17.59
2023-05-11T17:05:53.940Z,17.54
2023-05-11T17:08:20.956Z,17.50
2023-05-11T17:10:48.767Z,17.46
2023-05-11T17:13:17.161Z,17.40
2023-05-11T17:15:46.916Z,17.36
2023-05-11T17:18:13.945Z,17.32
2023-05-11T17:20:42.328Z,17.26
2023-05-11T17:23:09.799Z,17.20
2023-05-11T17:25:37.774Z,17.14
2023-05-11T17:28:07.567Z,17.08
2023-05-11T17:30:47.423Z,17.04
2023-05-11T17:33:16.939Z,17.00
2023-05-11T17:35:53.254Z,16.95
2023-05-11T17:38:20.462Z,16.89
2023-05-11T17:40:49.147Z,16.81
2023-05-11T17:43:16.831Z,16.74
2023-05-11T17:45:43.887Z,16.68
2023-05-11T17:51:36.071Z,16.46
2023-05-11T17:54:04.066Z,16.35
2023-05-11T17:56:37.942Z,16.27
2023-05-11T17:59:05.585Z,16.18
2023-05-11T18:01:34.278Z,16.09
2023-05-11T18:04:05.602Z,16.00
2023-05-11T18:06:34.161Z,15.91
2023-05-11T18:09:05.541Z,15.83
2023-05-11T18:11:32.687Z,15.75
2023-05-11T18:13:59.722Z,15.68
2023-05-11T18:16:28.493Z,15.60
2023-05-11T18:18:57.370Z,15.55
2023-05-11T18:21:27.426Z,15.48
2023-05-11T18:23:54.948Z,15.41
2023-05-11T18:26:22.182Z,15.34
2023-05-11T18:28:49.204Z,15.27
2023-05-11T18:31:21.676Z,15.19
2023-05-11T18:33:48.999Z,15.14
2023-05-11T18:36:17.054Z,15.09
2023-05-11T18:38:46.631Z,15.03
2023-05-11T18:41:15.039Z,14.96
2023-05-11T18:43:48.245Z,14.88
2023-05-11T18:46:15.577Z,14.80
2023-05-11T18:48:43.983Z,14.77
2023-05-11T18:51:11.468Z,14.71
2023-05-11T18:53:39.617Z,14.67
2023-05-11T18:56:06.828Z,14.62
2023-05-11T18:58:34.642Z,14.55
2023-05-11T19:01:01.849Z,14.48
2023-05-11T19:03:31.456Z,14.42
2023-05-11T19:06:01.251Z,14.36
2023-05-11T19:08:29.748Z,14.29
2023-05-11T19:10:57.216Z,14.23
2023-05-11T19:13:30.982Z,14.17
2023-05-11T19:15:58.050Z,14.11
2023-05-11T19:18:27.816Z,14.08
2023-05-11T19:20:57.379Z,14.03
2023-05-11T19:23:24.347Z,14.01
2023-05-11T19:25:51.544Z,13.96
2023-05-11T19:28:21.597Z,13.89
2023-05-11T19:30:49.118Z,13.82
2023-05-11T19:33:16.094Z,13.74
2023-05-11T19:35:44.079Z,13.68
2023-05-11T19:38:13.793Z,13.65
2023-05-11T19:40:45.837Z,13.60
2023-05-11T19:43:14.953Z,13.55
2023-05-11T19:45:46.799Z,13.50
2023-05-11T19:48:14.936Z,13.45
2023-05-11T19:50:42.680Z,13.43
2023-05-11T19:53:09.993Z,13.39
2023-05-11T19:55:40.137Z,13.33
2023-05-11T19:58:09.131Z,13.29
2023-05-11T20:00:36.845Z,13.22
2023-05-11T20:03:05.610Z,13.15
2023-05-11T20:05:33.606Z,13.11
2023-05-11T20:08:01.304Z,13.07
2023-05-11T20:10:28.677Z,13.03
2023-05-11T20:12:56.557Z,12.99
2023-05-11T20:15:23.628Z,12.95
2023-05-11T20:17:50.716Z,12.92
2023-05-11T20:20:21.748Z,12.88
2023-05-11T20:22:49.445Z,12.82
2023-05-11T20:25:18.841Z,12.78
2023-05-11T20:27:49.819Z,12.75
2023-05-11T20:30:17.933Z,12.68
2023-05-11T20:35:25.396Z,12.60
2023-05-11T20:37:53.337Z,12.57
2023-05-11T20:40:21.561Z,12.53
2023-05-11T20:42:49.202Z,12.50
2023-05-11T20:45:17.942Z,12.46
2023-05-11T20:47:48.570Z,12.43
2023-05-11T20:50:19.069Z,12.40
2023-05-11T20:52:47.570Z,12.34
2023-05-11T20:55:15.724Z,12.28
2023-05-11T20:57:43.266Z,12.23
2023-05-11T21:00:15.393Z,12.18
2023-05-11T21:02:44.596Z,12.14
2023-05-11T21:05:14.647Z,12.10
2023-05-11T21:07:45.914Z,12.08
2023-05-11T21:10:13.764Z,12.03
2023-05-11T21:12:40.968Z,11.99
2023-05-11T21:15:09.354Z,11.94
2023-05-11T21:21:08.716Z,11.82
2023-05-11T21:23:36.066Z,11.80
2023-05-11T21:26:03.243Z,11.79
2023-05-11T21:28:30.672Z,11.77
2023-05-11T21:30:58.074Z,11.74
2023-05-11T21:33:31.035Z,11.73
2023-05-11T21:35:59.630Z,11.69
2023-05-11T21:38:26.665Z,11.68
2023-05-11T21:40:54.424Z,11.65
2023-05-11T21:43:21.903Z,11.63
2023-05-11T21:45:50.679Z,11.61
2023-05-11T21:48:18.052Z,11.57
2023-05-11T21:50:45.178Z,11.54
2023-05-11T21:53:12.299Z,11.50
2023-05-11T21:55:39.179Z,11.49
2023-05-11T21:58:06.725Z,11.47
2023-05-11T22:00:34.385Z,11.44
2023-05-11T22:03:02.261Z,11.42
2023-05-11T22:05:30.076Z,11.40
2023-05-11T22:08:03.370Z,11.38
2023-05-11T22:10:40.798Z,11.36
2023-05-11T22:13:07.746Z,11.34
2023-05-11T22:15:34.748Z,11.32
2023-05-11T22:18:01.629Z,11.31
2023-05-11T22:20:28.741Z,11.26
2023-05-11T22:22:55.821Z,11.23
2023-05-11T22:25:23.242Z,11.21
2023-05-11T22:27:50.285Z,11.19
2023-05-11T22:30:17.868Z,11.18
2023-05-11T22:32:45.171Z,11.15
2023-05-11T22:35:12.343Z,11.12
2023-05-11T22:37:39.856Z,11.10
2023-05-11T22:40:07.514Z,11.07
2023-05-11T22:42:34.428Z,11.04
2023-05-11T22:45:01.873Z,11.00
2023-05-11T22:47:29.026Z,10.98
2023-05-11T22:49:56.366Z,10.94
2023-05-11T22:52:23.522Z,10.90
2023-05-11T22:55:00.293Z,10.85
2023-05-11T22:57:27.322Z,10.81
2023-05-11T22:59:54.550Z,10.76
2023-05-11T23:02:23.424Z,10.71
2023-05-11T23:04:52.467Z,10.70
2023-05-11T23:07:19.653Z,10.67
2023-05-11T23:09:47.170Z,10.64
2023-05-11T23:12:14.113Z,10.61
2023-05-11T23:14:41.468Z,10.57
2023-05-11T23:17:08.645Z,10.50
2023-05-11T23:19:35.840Z,10.48
2023-05-11T23:22:03.138Z,10.44
2023-05-11T23:24:36.879Z,10.42
2023-05-11T23:27:33.701Z,10.40
2023-05-11T23:30:00.678Z,10.35
2023-05-11T23:32:27.698Z,10.32
2023-05-11T23:34:54.719Z,10.27
2023-05-11T23:37:21.930Z,10.21
2023-05-11T23:39:48.889Z,10.15
2023-05-11T23:42:16.045Z,10.13
2023-05-11T23:44:42.956Z,10.11
2023-05-11T23:47:10.017Z,10.08
2023-05-11T23:49:38.023Z,10.07
2023-05-11T23:52:05.525Z,10.04
2023-05-11T23:54:33.458Z,10.01
2023-05-11T23:57:01.734Z,9.96
2023-05-11T23:59:28.875Z,9.93
